Fairford, United Kingdom
Current Conditions -  °F | °C
As of 3:13 PM on Tuesday 21 Oct 2014 (Local Time) from EGVA Reporting Station
Drizzle Drizzle  
Wind Chill: 55°   Ceiling: 5500
Heat Index: 55°   Visibility: 6mi
Dew Point: 37°   Wind: 25mph
Humidity: 51%   Direction: 290°WNW
Pressure: 29.83"   Gusts: 41mph
Location:  51.71°N, 1.78°W
Report Text: EGVA 211413Z AUTO 29022G36KT 9999 -DZ SCT047 BKN055 13/03 A2983 RMK AO2 DZB1408
Loading
Personal Weather Stations






























Interactive Weather Map
Tropical Storm Tracking
New forecast layout! Learn more

10-Day Weather Forecast

Advertisements
Track Severe Weather on mobile